Time;durP1;ratioP1;P1;durP2;ratioP2;P2;SDS_P1;SDS_P2;PMS_P1;PMS_P2;Temp;Humidity;BMP_temperature;BMP_pressure;BME280_temperature;BME280_humidity;BME280_pressure;Samples;Min_cycle;Max_cycle;Signal;HPM_P1;HPM_P2
2022/06/02 00:01:17;;;;;;;13.60;7.57;;;;;;;17.37;85.69;100332.94;5048606;28;20044;-66
2022/06/02 00:03:54;;;;;;;13.02;6.95;;;;;;;17.40;85.86;100343.44;5058798;28;20029;-67
2022/06/02 00:06:38;;;;;;;10.10;6.43;;;;;;;17.40;85.38;100341.59;5067789;28;20067;-67
2022/06/02 00:09:26;;;;;;;11.02;6.72;;;;;;;17.44;85.13;100348.38;5068067;28;20150;-66
2022/06/02 00:12:07;;;;;;;11.25;6.78;;;;;;;17.45;84.88;100354.66;5067760;28;20028;-66
2022/06/02 00:14:52;;;;;;;11.80;7.00;;;;;;;17.50;85.26;100358.50;5063415;28;20060;-67
2022/06/02 00:17:35;;;;;;;12.05;6.10;;;;;;;17.55;85.37;100369.69;5047935;28;20070;-66
2022/06/02 00:20:17;;;;;;;10.45;6.32;;;;;;;17.51;86.04;100351.22;5051376;28;20062;-67
2022/06/02 00:23:21;;;;;;;16.88;6.88;;;;;;;17.60;86.23;100356.41;5068050;28;20503;-67
2022/06/02 00:26:06;;;;;;;13.93;6.25;;;;;;;17.60;86.59;100356.41;5067767;28;20024;-67
2022/06/02 00:28:40;;;;;;;13.85;6.60;;;;;;;17.61;85.86;100349.13;5050875;28;20110;-67
2022/06/02 00:31:25;;;;;;;13.77;7.50;;;;;;;17.59;85.81;100345.75;5045119;28;20411;-67
2022/06/02 00:34:02;;;;;;;12.93;7.03;;;;;;;17.52;85.62;100333.94;5062080;28;20056;-67
2022/06/02 00:36:59;;;;;;;15.65;6.25;;;;;;;17.57;85.27;100347.78;5066492;28;20048;-67
2022/06/02 00:39:24;;;;;;;13.68;6.70;;;;;;;17.55;85.34;100339.84;5063398;28;20047;-67
2022/06/02 00:42:12;;;;;;;13.50;6.55;;;;;;;17.55;85.90;100345.28;5055205;28;20033;-67
2022/06/02 00:45:12;;;;;;;14.25;6.78;;;;;;;17.54;85.70;100342.75;5048151;28;20382;-66
2022/06/02 00:48:15;;;;;;;12.88;6.63;;;;;;;17.53;85.94;100349.16;5039892;28;20120;-69
2022/06/02 00:51:13;;;;;;;14.07;6.18;;;;;;;17.52;86.43;100345.63;5046435;28;20031;-67
2022/06/02 00:57:35;;;;;;;12.95;6.75;;;;;;;17.50;87.04;100344.09;5047848;28;20960;-67
2022/06/02 01:00:15;;;;;;;11.90;6.60;;;;;;;17.49;87.08;100339.69;5046697;28;20028;-68
2022/06/02 01:03:07;;;;;;;8.30;6.07;;;;;;;17.48;86.91;100338.84;5047796;28;20043;-67
2022/06/02 01:05:54;;;;;;;8.70;6.18;;;;;;;17.46;86.86;100337.34;5041510;28;20053;-67
2022/06/02 01:08:22;;;;;;;11.55;6.78;;;;;;;17.45;86.45;100330.25;5048479;28;20395;-68
2022/06/02 01:11:20;;;;;;;15.07;7.45;;;;;;;17.44;86.41;100328.53;5067190;28;20025;-67
2022/06/02 01:13:54;;;;;;;13.02;6.30;;;;;;;17.39;86.28;100323.63;5032611;28;20045;-66
2022/06/02 01:16:26;;;;;;;11.68;7.15;;;;;;;17.31;86.65;100320.94;5067474;28;20031;-68
2022/06/02 01:18:55;;;;;;;14.15;6.70;;;;;;;17.37;86.86;100335.66;5067227;28;20025;-67
2022/06/02 01:21:54;;;;;;;12.10;6.72;;;;;;;17.26;86.82;100312.53;5067251;28;20029;-68
2022/06/02 01:24:37;;;;;;;11.25;6.65;;;;;;;17.29;87.32;100314.84;5060872;28;20439;-68
2022/06/02 01:27:20;;;;;;;13.80;6.65;;;;;;;17.22;88.10;100307.63;5046885;28;20433;-68
2022/06/02 01:30:25;;;;;;;14.55;6.38;;;;;;;17.30;87.72;100315.72;5050665;28;20478;-67
2022/06/02 01:33:07;;;;;;;9.35;6.38;;;;;;;17.27;87.66;100313.34;5045329;28;20035;-66
2022/06/02 01:35:45;;;;;;;11.90;6.85;;;;;;;17.24;87.54;100314.56;5067112;28;20056;-67
2022/06/02 01:38:25;;;;;;;9.32;6.28;;;;;;;17.21;88.19;100309.50;5066770;28;20028;-68
2022/06/02 01:41:12;;;;;;;10.00;7.00;;;;;;;17.18;88.50;100311.69;5067000;28;20362;-68
2022/06/02 01:44:16;;;;;;;9.98;7.38;;;;;;;17.09;88.66;100294.63;5056675;28;20044;-68
2022/06/02 01:46:46;;;;;;;11.75;6.85;;;;;;;17.11;88.72;100302.59;5047255;28;20662;-66
2022/06/02 01:49:30;;;;;;;12.00;6.57;;;;;;;17.06;88.56;100294.16;5047230;28;20124;-67
2022/06/02 01:52:28;;;;;;;8.68;6.45;;;;;;;17.01;88.78;100299.25;5065503;28;20035;-67
2022/06/02 01:55:14;;;;;;;13.32;6.78;;;;;;;16.95;88.60;100294.53;5049192;28;20099;-67
2022/06/02 01:58:02;;;;;;;11.18;5.93;;;;;;;16.89;88.90;100292.53;5053693;28;20027;-67
2022/06/02 02:00:32;;;;;;;9.40;6.82;;;;;;;16.84;89.16;100289.50;5065511;28;20029;-67
2022/06/02 02:03:21;;;;;;;12.95;6.80;;;;;;;16.80;89.34;100293.59;5066657;28;20031;-67
2022/06/02 02:06:06;;;;;;;10.25;6.30;;;;;;;16.75;89.40;100285.13;5067156;28;20049;-67
2022/06/02 02:08:59;;;;;;;13.98;7.10;;;;;;;16.71;89.44;100290.06;5066834;28;20381;-67
2022/06/02 02:11:45;;;;;;;11.57;6.72;;;;;;;16.66;90.05;100280.75;5067439;28;20145;-67
2022/06/02 02:14:37;;;;;;;15.23;6.45;;;;;;;16.58;89.92;100278.94;5070483;28;20028;-67
2022/06/02 02:17:08;;;;;;;10.45;6.30;;;;;;;16.56;90.04;100277.41;5051484;28;20036;-67
2022/06/02 02:19:48;;;;;;;13.35;6.55;;;;;;;16.52;90.63;100285.06;5055272;28;20025;-68
2022/06/02 02:22:35;;;;;;;14.65;6.25;;;;;;;16.51;90.31;100274.41;5049460;28;20101;-68
2022/06/02 02:25:01;;;;;;;11.93;7.18;;;;;;;16.49;91.27;100282.69;5057345;28;20024;-68
2022/06/02 02:30:30;;;;;;;13.75;6.90;;;;;;;16.43;90.87;100290.63;5050569;28;20136;-67
2022/06/02 02:33:02;;;;;;;10.15;6.55;;;;;;;16.44;90.86;100297.78;5050471;28;20031;-67
2022/06/02 02:35:39;;;;;;;10.68;6.30;;;;;;;16.41;90.86;100309.72;5053180;28;20549;-68
2022/06/02 02:38:20;;;;;;;8.52;6.38;;;;;;;16.34;90.54;100307.91;5070174;28;20060;-66
2022/06/02 02:40:51;;;;;;;11.57;6.38;;;;;;;16.41;91.03;100334.09;5066785;28;20055;-66
2022/06/02 02:43:24;;;;;;;10.93;6.15;;;;;;;16.40;91.17;100345.09;5070606;28;20032;-68
2022/06/02 02:45:59;;;;;;;10.15;6.32;;;;;;;16.37;91.12;100338.16;5069819;28;20032;-66
2022/06/02 02:48:46;;;;;;;7.85;6.18;;;;;;;16.40;91.15;100342.38;5069917;28;20044;-68
2022/06/02 02:51:32;;;;;;;13.43;6.88;;;;;;;16.40;91.12;100345.09;5046438;28;20115;-67
2022/06/02 02:54:25;;;;;;;11.13;6.85;;;;;;;16.40;91.29;100340.53;5049586;28;20041;-67
2022/06/02 02:57:35;;;;;;;13.18;7.22;;;;;;;16.41;90.91;100341.41;5046910;28;20375;-67
2022/06/02 03:00:12;;;;;;;12.77;6.47;;;;;;;16.41;90.67;100330.56;5041078;28;20041;-67
2022/06/02 03:03:05;;;;;;;11.13;6.38;;;;;;;16.40;90.30;100329.72;5051873;28;20135;-66
2022/06/02 03:05:56;;;;;;;9.07;6.65;;;;;;;16.41;90.58;100328.69;5049128;28;20052;-67
2022/06/02 03:08:37;;;;;;;8.90;6.45;;;;;;;16.43;90.26;100325.84;5047748;28;20036;-68
2022/06/02 03:11:44;;;;;;;15.32;6.82;;;;;;;16.44;90.82;100322.13;5051187;28;20558;-67
2022/06/02 03:14:34;;;;;;;9.25;6.43;;;;;;;16.42;91.17;100305.16;5068788;28;20456;-66
2022/06/02 03:17:26;;;;;;;14.95;6.85;;;;;;;16.52;91.49;100312.13;5069115;28;20191;-66
2022/06/02 03:20:18;;;;;;;15.95;7.13;;;;;;;16.57;91.36;100317.84;5058515;28;20405;-67
2022/06/02 03:23:03;;;;;;;12.27;7.63;;;;;;;16.53;91.78;100297.56;5063295;28;20103;-67
2022/06/02 03:25:40;;;;;;;13.15;6.65;;;;;;;16.66;92.55;100310.53;5064077;28;20033;-67
2022/06/02 03:28:21;;;;;;;12.57;6.85;;;;;;;16.70;92.75;100301.09;5060771;28;20036;-67
2022/06/02 03:31:14;;;;;;;12.68;6.45;;;;;;;16.74;92.25;100305.97;5064949;28;20052;-67
2022/06/02 03:33:56;;;;;;;11.18;6.60;;;;;;;16.77;91.70;100300.19;5066403;28;20108;-66
2022/06/02 03:36:33;;;;;;;8.82;6.57;;;;;;;16.81;91.55;100301.56;5049568;28;20028;-67
2022/06/02 03:39:08;;;;;;;10.38;6.70;;;;;;;16.85;91.40;100308.28;5046825;28;20075;-67
2022/06/02 03:42:09;;;;;;;10.10;6.55;;;;;;;16.92;90.74;100324.69;5046791;28;20037;-66
2022/06/02 03:44:56;;;;;;;8.05;6.53;;;;;;;16.97;90.78;100325.00;5011075;28;20487;-67
2022/06/02 03:47:53;;;;;;;7.38;6.63;;;;;;;17.03;90.79;100329.75;5049705;28;20379;-67
2022/06/02 03:50:33;;;;;;;9.70;6.47;;;;;;;17.05;90.84;100342.09;5045568;28;20029;-67
2022/06/02 03:53:10;;;;;;;10.02;6.22;;;;;;;17.08;90.62;100335.47;5046917;28;20098;-66
2022/06/02 03:55:54;;;;;;;11.25;6.45;;;;;;;17.15;90.79;100345.44;5048856;28;20044;-66
2022/06/02 03:58:41;;;;;;;11.48;5.63;;;;;;;17.20;91.11;100350.31;5050596;28;20056;-66
2022/06/02 04:01:12;;;;;;;8.73;5.90;;;;;;;17.22;92.21;100353.72;5049701;28;20025;-67
2022/06/02 04:04:11;;;;;;;10.35;6.78;;;;;;;17.25;91.57;100358.78;5046039;28;20094;-68
2022/06/02 04:06:42;;;;;;;9.50;5.88;;;;;;;17.26;90.88;100364.03;5039888;28;20936;-68
2022/06/02 04:09:31;;;;;;;11.27;6.78;;;;;;;17.23;90.04;100358.09;5046494;28;20024;-67
2022/06/02 04:15:23;;;;;;;8.50;5.85;;;;;;;17.36;89.68;100385.50;5046714;28;20102;-68
2022/06/02 04:18:28;;;;;;;10.88;6.13;;;;;;;17.38;89.21;100397.03;5046106;28;20052;-68
2022/06/02 04:21:41;;;;;;;7.75;5.03;;;;;;;17.34;88.29;100401.09;5046008;28;20035;-67
2022/06/02 04:24:29;;;;;;;9.55;5.82;;;;;;;17.47;87.52;100445.66;5041995;28;20444;-66
2022/06/02 04:27:03;;;;;;;13.63;6.32;;;;;;;17.43;88.53;100457.88;5047682;28;20458;-68
2022/06/02 04:29:28;;;;;;;;;;;;;;;17.46;87.70;100475.66;5047775;28;20395;-68
2022/06/02 04:32:31;;;;;;;9.98;5.35;;;;;;;17.50;85.98;100482.41;5047434;28;19917;-67
2022/06/02 04:35:19;;;;;;;5.63;4.57;;;;;;;17.53;85.35;100496.47;5045492;28;20029;-66
2022/06/02 04:38:15;;;;;;;6.78;4.88;;;;;;;17.55;85.10;100493.59;5046668;28;20458;-67
2022/06/02 04:41:17;;;;;;;8.75;4.32;;;;;;;17.58;84.59;100471.53;5044905;28;20470;-67
2022/06/02 04:43:42;;;;;;;6.47;4.55;;;;;;;17.63;84.61;100469.13;5049653;28;20036;-67
2022/06/02 04:46:43;;;;;;;4.85;3.88;;;;;;;17.67;82.88;100470.50;5047426;28;20056;-67
2022/06/02 04:49:30;;;;;;;8.23;4.30;;;;;;;17.72;82.64;100477.06;5057441;28;20024;-67
2022/06/02 04:52:05;;;;;;;5.82;4.15;;;;;;;17.77;81.75;100460.28;5050619;28;20051;-68
2022/06/02 04:54:47;;;;;;;6.28;3.65;;;;;;;17.84;81.35;100462.06;5064430;28;20028;-67
2022/06/02 04:57:18;;;;;;;4.20;3.80;;;;;;;17.75;80.94;100430.59;5064035;28;20471;-66
2022/06/02 05:00:07;;;;;;;7.85;4.15;;;;;;;17.96;80.67;100459.84;5048378;28;20039;-68
2022/06/02 05:02:41;;;;;;;7.20;3.70;;;;;;;18.04;80.72;100478.78;5066661;28;20032;-67
2022/06/02 05:05:15;;;;;;;5.90;4.38;;;;;;;18.08;80.24;100486.38;5064959;28;20040;-68
2022/06/02 05:07:56;;;;;;;6.35;3.90;;;;;;;18.13;79.80;100483.97;5065000;28;20029;-67
2022/06/02 05:10:40;;;;;;;10.32;4.65;;;;;;;18.19;79.41;100479.72;5059964;28;20139;-67
2022/06/02 05:13:38;;;;;;;9.70;5.03;;;;;;;18.22;80.38;100468.50;5046308;28;20056;-69
2022/06/02 05:16:04;;;;;;;6.25;4.22;;;;;;;18.27;80.66;100465.22;5058114;28;20097;-68
2022/06/02 05:19:06;;;;;;;9.25;3.97;;;;;;;18.33;81.19;100456.34;5066321;28;20028;-67
2022/06/02 05:21:50;;;;;;;6.55;4.10;;;;;;;18.35;81.73;100452.44;5066749;28;20028;-68
2022/06/02 05:24:18;;;;;;;11.57;4.47;;;;;;;18.39;81.74;100445.66;5047196;28;20431;-68
2022/06/02 05:27:19;;;;;;;15.40;4.45;;;;;;;18.42;81.23;100450.72;5046949;28;20499;-68
2022/06/02 05:30:08;;;;;;;9.00;4.95;;;;;;;18.46;81.11;100446.59;5046577;28;20450;-68
2022/06/02 05:32:54;;;;;;;10.05;5.00;;;;;;;18.50;80.46;100450.63;5046919;28;20746;-67
2022/06/02 05:35:50;;;;;;;10.68;4.45;;;;;;;18.55;79.76;100447.38;5055249;28;20033;-66
2022/06/02 05:38:38;;;;;;;6.65;4.57;;;;;;;18.60;79.54;100453.94;5066680;28;20032;-67
2022/06/02 05:41:35;;;;;;;10.75;4.55;;;;;;;18.68;78.70;100455.75;5061503;28;20387;-67
2022/06/02 05:44:27;;;;;;;8.30;4.03;;;;;;;18.74;77.72;100458.59;5065244;28;20128;-67
2022/06/02 05:47:18;;;;;;;5.35;4.13;;;;;;;18.80;76.78;100457.84;5046895;28;20056;-67
2022/06/02 05:50:03;;;;;;;7.28;4.68;;;;;;;18.85;75.87;100450.00;5050593;28;20037;-67
2022/06/02 05:52:29;;;;;;;;;;;;;;;18.91;75.32;100451.97;5054476;28;20051;-67
2022/06/02 05:55:19;;;;;;;9.98;4.53;;;;;;;18.99;74.75;100449.16;5070836;28;20429;-68
2022/06/02 05:57:51;;;;;;;7.38;4.60;;;;;;;19.09;74.47;100449.75;5069046;28;20399;-67
2022/06/02 06:01:01;;;;;;;5.60;3.63;;;;;;;19.25;74.60;100449.56;5050433;28;20074;-68
2022/06/02 06:03:44;;;;;;;7.82;4.45;;;;;;;19.52;74.02;100442.66;5066136;28;20382;-68
2022/06/02 06:06:34;;;;;;;4.65;3.58;;;;;;;19.72;73.94;100443.75;5066077;28;20134;-68
2022/06/02 06:09:09;;;;;;;10.27;4.75;;;;;;;20.03;71.81;100456.06;5048498;28;20060;-68
2022/06/02 06:11:58;;;;;;;9.25;5.50;;;;;;;20.17;71.52;100449.78;5058427;28;20087;-66
2022/06/02 06:15:02;;;;;;;8.75;6.03;;;;;;;20.37;71.26;100439.06;5056557;28;20072;-68
2022/06/02 06:17:56;;;;;;;6.82;4.78;;;;;;;20.66;70.98;100454.47;5048676;28;20040;-67
2022/06/02 06:20:51;;;;;;;5.43;3.80;;;;;;;20.93;69.47;100446.28;5066278;28;20052;-67
2022/06/02 06:23:50;;;;;;;5.25;4.15;;;;;;;21.09;68.44;100450.66;5050072;28;20768;-68
2022/06/02 06:26:52;;;;;;;3.90;3.38;;;;;;;21.17;67.68;100447.75;5056124;28;20433;-68
2022/06/02 06:29:38;;;;;;;5.63;3.33;;;;;;;21.31;67.30;100463.19;5009805;28;20107;-68
2022/06/02 06:32:28;;;;;;;3.60;3.03;;;;;;;21.41;67.13;100455.47;5046033;28;20041;-68
2022/06/02 06:35:02;;;;;;;4.68;3.75;;;;;;;21.57;66.78;100463.34;5050140;28;20869;-68
2022/06/02 06:37:28;;;;;;;4.50;3.42;;;;;;;21.73;66.27;100458.41;5048512;28;20036;-67
2022/06/02 06:40:31;;;;;;;9.20;4.63;;;;;;;21.90;65.27;100457.00;5058788;28;20073;-69
2022/06/02 06:43:11;;;;;;;9.10;4.53;;;;;;;22.07;64.52;100465.69;5054360;28;20136;-68
2022/06/02 06:46:17;;;;;;;5.07;3.75;;;;;;;22.24;64.46;100467.00;5057522;28;20598;-67
2022/06/02 06:49:10;;;;;;;3.45;3.13;;;;;;;22.37;64.12;100453.34;5033800;28;20052;-67
2022/06/02 06:52:14;;;;;;;8.15;4.38;;;;;;;22.52;63.37;100462.25;5048356;28;20155;-69
2022/06/02 06:54:52;;;;;;;4.50;3.28;;;;;;;22.63;62.51;100461.63;5051659;28;20025;-68
2022/06/02 06:57:26;;;;;;;6.95;3.35;;;;;;;22.68;62.11;100453.66;5069434;28;20024;-69
2022/06/02 07:00:19;;;;;;;3.83;3.20;;;;;;;22.83;61.74;100459.75;5054697;28;20095;-68
2022/06/02 07:02:57;;;;;;;7.68;3.90;;;;;;;22.84;60.12;100449.66;5049925;28;20546;-68
2022/06/02 07:05:26;;;;;;;7.88;4.32;;;;;;;23.00;60.46;100450.09;5061312;28;20056;-69
2022/06/02 07:08:00;;;;;;;5.32;3.65;;;;;;;23.20;60.04;100450.03;5069621;28;20040;-68
2022/06/02 07:10:35;;;;;;;5.65;3.58;;;;;;;23.35;59.09;100431.53;5056706;28;20057;-70
2022/06/02 07:13:22;;;;;;;3.97;3.17;;;;;;;23.70;58.40;100447.41;5049539;28;20040;-68
2022/06/02 07:16:16;;;;;;;7.85;3.15;;;;;;;24.03;57.37;100452.81;5049766;28;20016;-69
2022/06/02 07:19:11;;;;;;;7.55;4.43;;;;;;;24.31;55.27;100436.81;5063176;28;20017;-68
2022/06/02 07:21:48;;;;;;;5.13;3.15;;;;;;;24.53;55.16;100448.31;5063927;28;20537;-70
2022/06/02 07:24:43;;;;;;;5.75;3.10;;;;;;;24.72;54.94;100459.16;5068136;28;20037;-69
2022/06/02 07:27:41;;;;;;;6.57;3.42;;;;;;;24.97;54.35;100451.78;5062808;28;20040;-68
2022/06/02 07:30:32;;;;;;;4.82;2.72;;;;;;;25.23;53.77;100467.16;5049406;28;20025;-68
2022/06/02 07:33:14;;;;;;;8.52;3.65;;;;;;;25.39;53.05;100472.09;5049659;28;20590;-68
2022/06/02 07:35:48;;;;;;;5.75;3.78;;;;;;;25.56;52.32;100481.41;5047526;28;20747;-68
2022/06/02 07:38:32;;;;;;;8.98;3.58;;;;;;;25.65;52.12;100474.56;5049371;28;20024;-67
2022/06/02 07:41:40;;;;;;;5.15;3.58;;;;;;;25.79;51.84;100481.59;5053314;28;20083;-68
2022/06/02 07:44:26;;;;;;;6.30;3.47;;;;;;;25.92;51.39;100476.78;5048940;28;20062;-69
2022/06/02 07:47:33;;;;;;;8.00;4.10;;;;;;;26.05;51.12;100467.56;5051307;28;20025;-69
2022/06/02 07:50:10;;;;;;;6.80;3.22;;;;;;;26.15;50.90;100479.69;5051296;28;20372;-69
2022/06/02 07:52:51;;;;;;;7.13;3.35;;;;;;;26.26;50.56;100487.16;5050667;28;20029;-69
2022/06/02 07:55:43;;;;;;;5.15;3.33;;;;;;;26.40;50.19;100485.91;5057553;28;20039;-69
2022/06/02 07:58:09;;;;;;;7.93;3.03;;;;;;;26.51;49.88;100476.84;5048549;28;20082;-68
2022/06/02 08:01:19;;;;;;;5.28;3.30;;;;;;;26.63;49.82;100481.59;5047208;28;20041;-69
2022/06/02 08:04:22;;;;;;;5.72;3.10;;;;;;;26.72;48.90;100475.50;5025000;28;20164;-68
2022/06/02 08:06:55;;;;;;;4.70;2.80;;;;;;;26.85;49.10;100480.81;5046587;28;20055;-69
2022/06/02 08:10:11;;;;;;;4.00;3.17;;;;;;;26.99;48.81;100473.16;5046236;28;20032;-70
2022/06/02 08:13:04;;;;;;;5.45;2.88;;;;;;;27.09;48.21;100468.75;5034521;28;20390;-69
2022/06/02 08:15:56;;;;;;;7.97;3.15;;;;;;;27.15;48.03;100469.72;5068656;28;20199;-69
2022/06/02 08:18:22;;;;;;;4.60;3.30;;;;;;;27.23;47.85;100466.59;5058956;28;20055;-69
2022/06/02 08:21:15;;;;;;;8.43;3.05;;;;;;;27.27;47.87;100474.19;5058742;28;20474;-69
2022/06/02 08:24:13;;;;;;;3.63;2.38;;;;;;;27.35;48.15;100486.75;5053624;28;20666;-69
2022/06/02 08:26:59;;;;;;;8.02;3.38;;;;;;;27.40;47.86;100484.13;5060993;28;20043;-69
2022/06/02 08:29:47;;;;;;;4.50;2.92;;;;;;;27.47;47.88;100491.19;5059098;28;20053;-69
2022/06/02 08:32:31;;;;;;;6.43;3.50;;;;;;;27.51;47.93;100481.38;5051138;28;20471;-69
2022/06/02 08:35:17;;;;;;;5.88;3.88;;;;;;;27.55;47.44;100488.09;5048919;28;20505;-70
2022/06/02 08:38:07;;;;;;;8.93;3.78;;;;;;;27.62;48.29;100488.78;5053290;28;20021;-70
2022/06/02 08:41:00;;;;;;;3.85;2.75;;;;;;;27.64;47.38;100488.53;5052934;28;20028;-70
2022/06/02 08:44:02;;;;;;;4.78;3.22;;;;;;;27.71;46.51;100492.00;5056422;28;20036;-69
2022/06/02 08:46:52;;;;;;;4.13;3.10;;;;;;;27.69;47.44;100483.13;5050333;28;20020;-69
2022/06/02 08:49:17;;;;;;;4.53;2.67;;;;;;;27.76;47.62;100476.41;5058693;28;20039;-68
2022/06/02 08:52:21;;;;;;;4.55;2.95;;;;;;;27.77;47.93;100475.34;5054659;28;20490;-70
2022/06/02 08:55:14;;;;;;;6.70;2.78;;;;;;;27.84;48.20;100469.69;5058274;28;20023;-69
2022/06/02 08:57:53;;;;;;;4.18;2.83;;;;;;;27.91;48.14;100474.03;5067347;28;20486;-68
2022/06/02 09:00:42;;;;;;;3.00;2.63;;;;;;;28.01;48.63;100487.19;5050725;28;20052;-68
2022/06/02 09:03:46;;;;;;;4.75;3.08;;;;;;;28.07;48.00;100478.78;5051831;28;20482;-70
2022/06/02 09:06:14;;;;;;;3.25;2.47;;;;;;;28.12;48.51;100481.63;5056034;28;20033;-70
2022/06/02 09:09:12;;;;;;;2.97;2.60;;;;;;;28.17;48.26;100483.66;5047681;28;20059;-70
2022/06/02 09:12:10;;;;;;;4.22;2.55;;;;;;;28.30;47.67;100477.84;5053614;28;20025;-68
2022/06/02 09:14:38;;;;;;;3.50;2.75;;;;;;;28.36;47.94;100494.28;5051891;28;20646;-69
2022/06/02 09:17:25;;;;;;;6.80;3.00;;;;;;;28.43;47.12;100494.13;5065065;28;20059;-69
2022/06/02 09:20:12;;;;;;;3.47;2.95;;;;;;;28.40;47.33;100489.94;5062086;28;20035;-69
2022/06/02 09:23:02;;;;;;;3.83;2.53;;;;;;;28.32;48.00;100483.97;5066047;28;20386;-69
2022/06/02 09:25:52;;;;;;;3.85;2.80;;;;;;;28.36;48.05;100497.03;5067350;28;20036;-69
2022/06/02 09:28:35;;;;;;;4.03;3.20;;;;;;;28.41;48.78;100490.78;5060753;28;20063;-69
2022/06/02 09:31:06;;;;;;;3.30;3.00;;;;;;;28.48;48.84;100489.59;5053588;28;20025;-68
2022/06/02 09:34:00;;;;;;;5.43;3.00;;;;;;;28.44;48.95;100480.09;5060996;28;20040;-68
2022/06/02 09:36:28;;;;;;;5.67;3.03;;;;;;;28.59;49.22;100492.53;5067301;28;20039;-69
2022/06/02 09:39:05;;;;;;;4.32;3.15;;;;;;;28.59;49.42;100493.34;5057184;28;20097;-69
2022/06/02 09:41:48;;;;;;;4.50;2.83;;;;;;;28.61;49.97;100501.38;5049979;28;20025;-68
2022/06/02 09:44:34;;;;;;;3.33;2.88;;;;;;;28.61;49.72;100499.47;5051695;28;20044;-69
2022/06/02 09:47:11;;;;;;;4.97;2.80;;;;;;;28.54;49.88;100507.09;5064787;28;20478;-69
2022/06/02 09:50:14;;;;;;;4.60;2.50;;;;;;;28.52;49.48;100507.31;5062236;28;20039;-69
2022/06/02 09:52:54;;;;;;;4.53;2.92;;;;;;;28.51;49.67;100494.59;5059389;28;20036;-69
2022/06/02 09:55:28;;;;;;;3.58;2.97;;;;;;;28.50;49.33;100514.16;5067056;28;20029;-69
2022/06/02 09:58:06;;;;;;;5.20;3.58;;;;;;;28.34;50.15;100515.75;5065004;28;20081;-69
2022/06/02 10:00:53;;;;;;;3.65;2.90;;;;;;;28.32;50.65;100508.81;5046958;28;20056;-68
2022/06/02 10:03:24;;;;;;;5.47;3.33;;;;;;;28.32;50.48;100506.06;5052025;28;20053;-69
2022/06/02 10:06:08;;;;;;;3.58;3.25;;;;;;;28.36;50.15;100507.22;5046883;28;20823;-69
2022/06/02 10:09:19;;;;;;;6.15;3.08;;;;;;;28.43;49.69;100510.69;5049365;28;20044;-70
2022/06/02 10:15:27;;;;;;;6.03;3.67;;;;;;;28.59;49.44;100509.91;5044456;28;20497;-69
2022/06/02 10:18:08;;;;;;;3.33;3.03;;;;;;;28.61;49.18;100515.19;5052099;28;20060;-69
2022/06/02 10:20:39;;;;;;;4.40;3.17;;;;;;;28.59;49.23;100514.63;5047193;28;20029;-69
2022/06/02 10:23:23;;;;;;;11.55;4.20;;;;;;;28.54;50.11;100516.19;5046800;28;20039;-70
2022/06/02 10:26:11;;;;;;;8.70;4.22;;;;;;;28.46;50.70;100516.59;5046986;28;20227;-70
2022/06/02 10:29:16;;;;;;;4.95;4.00;;;;;;;28.29;51.48;100512.91;5061173;28;20475;-69
2022/06/02 10:31:55;;;;;;;5.32;3.70;;;;;;;28.23;51.93;100508.38;5052038;28;20044;-69
2022/06/02 10:35:02;;;;;;;4.28;3.30;;;;;;;28.14;51.83;100498.78;5070133;28;20060;-68
2022/06/02 10:37:53;;;;;;;5.25;4.10;;;;;;;28.25;51.45;100508.13;5069048;28;20024;-68
2022/06/02 10:40:40;;;;;;;7.25;3.65;;;;;;;28.23;51.54;100500.09;5055253;28;20040;-69
2022/06/02 10:43:46;;;;;;;4.63;3.38;;;;;;;28.24;51.95;100504.50;5049107;28;20021;-70
2022/06/02 10:46:18;;;;;;;4.80;3.67;;;;;;;28.34;52.23;100510.22;5050113;28;20111;-69
2022/06/02 10:49:06;;;;;;;4.20;3.33;;;;;;;28.29;52.32;100501.88;5050353;28;20032;-69
2022/06/02 10:52:06;;;;;;;4.95;3.65;;;;;;;28.30;52.25;100498.03;5050361;28;20493;-69
2022/06/02 10:54:40;;;;;;;4.50;3.55;;;;;;;28.30;52.20;100509.06;5050283;28;20399;-69
2022/06/02 10:57:45;;;;;;;3.90;3.28;;;;;;;28.26;52.36;100498.75;5049001;28;20490;-69
2022/06/02 11:00:47;;;;;;;4.13;3.03;;;;;;;28.22;52.14;100497.56;5049976;28;20029;-69
2022/06/02 11:03:13;;;;;;;5.03;3.10;;;;;;;28.14;51.89;100495.19;5049733;28;20052;-68
2022/06/02 11:06:21;;;;;;;4.65;3.08;;;;;;;27.93;51.74;100471.88;5066949;28;20072;-69
2022/06/02 11:08:55;;;;;;;4.45;3.08;;;;;;;28.07;51.91;100494.50;5056001;28;20127;-69
2022/06/02 11:12:00;;;;;;;4.00;2.50;;;;;;;28.04;51.88;100489.47;5068358;28;20797;-68
2022/06/02 11:14:45;;;;;;;;;;;;;;;28.05;51.69;100478.19;5066144;28;20029;-68
2022/06/02 11:17:26;;;;;;;6.45;2.72;;;;;;;28.14;51.32;100478.63;5047671;28;19916;-70
2022/06/02 11:20:23;;;;;;;3.47;2.67;;;;;;;28.14;51.43;100475.88;5048330;28;20056;-70
2022/06/02 11:23:10;;;;;;;5.05;2.92;;;;;;;28.10;50.94;100485.72;5049398;28;20028;-69
2022/06/02 11:25:56;;;;;;;4.72;3.20;;;;;;;28.14;51.13;100481.38;5049736;28;20090;-70
2022/06/02 11:28:40;;;;;;;6.55;3.13;;;;;;;28.20;51.56;100474.91;5056301;28;20037;-69
2022/06/02 11:31:12;;;;;;;3.78;2.80;;;;;;;28.23;51.10;100466.13;5064896;28;20029;-69
2022/06/02 11:34:06;;;;;;;3.33;2.92;;;;;;;28.35;50.70;100486.25;5049712;28;20531;-69
2022/06/02 11:36:43;;;;;;;3.07;2.63;;;;;;;28.42;50.34;100478.66;5049431;28;20040;-69
2022/06/02 11:39:35;;;;;;;4.95;3.00;;;;;;;28.32;50.93;100486.72;5065662;28;20043;-69
2022/06/02 11:42:12;;;;;;;6.78;2.80;;;;;;;28.23;50.91;100494.56;5049026;28;20106;-69
2022/06/02 11:44:57;;;;;;;4.07;2.42;;;;;;;28.16;51.48;100493.88;5048424;28;20116;-69
2022/06/02 11:47:35;;;;;;;3.30;2.60;;;;;;;28.06;51.46;100476.28;5048753;28;20037;-70
2022/06/02 11:50:19;;;;;;;3.33;2.40;;;;;;;28.13;51.40;100488.00;5064356;28;20025;-69
2022/06/02 11:53:05;;;;;;;5.25;2.53;;;;;;;28.19;51.27;100492.53;5066329;28;20386;-69
2022/06/02 11:56:06;;;;;;;4.03;2.25;;;;;;;28.31;50.76;100501.63;5062671;28;20459;-69
2022/06/02 11:58:56;;;;;;;4.78;2.40;;;;;;;28.29;50.43;100507.38;5057668;28;20036;-68
2022/06/02 12:01:27;;;;;;;3.25;1.95;;;;;;;28.27;49.69;100490.22;5068702;28;20116;-69
2022/06/02 12:04:16;;;;;;;2.67;2.15;;;;;;;28.31;48.79;100501.63;5050372;28;20036;-69
2022/06/02 12:06:44;;;;;;;5.30;1.80;;;;;;;28.23;49.32;100491.81;5050336;28;20170;-69
2022/06/02 12:09:43;;;;;;;2.85;1.90;;;;;;;28.19;49.39;100487.88;5058128;28;20025;-69
2022/06/02 12:12:28;;;;;;;1.73;1.52;;;;;;;28.22;49.12;100498.41;5062241;28;20029;-70
2022/06/02 12:15:22;;;;;;;;;;;;;;;28.16;49.10;100493.03;5053672;28;20469;-69
2022/06/02 12:18:19;;;;;;;2.20;1.52;;;;;;;28.11;49.51;100490.16;5043809;28;20387;-69
2022/06/02 12:20:59;;;;;;;2.95;1.63;;;;;;;28.14;49.50;100490.50;5057714;28;20051;-69
2022/06/02 12:23:33;;;;;;;3.20;1.75;;;;;;;28.20;49.08;100491.44;5066835;28;20043;-69
2022/06/02 12:26:00;;;;;;;2.22;1.60;;;;;;;28.23;48.51;100497.31;5051397;28;20016;-70
2022/06/02 12:28:50;;;;;;;1.73;1.52;;;;;;;28.29;48.25;100493.59;5067639;28;20032;-68
2022/06/02 12:31:35;;;;;;;1.90;1.70;;;;;;;28.28;48.13;100502.94;5067405;28;20028;-69
2022/06/02 12:34:35;;;;;;;4.13;1.80;;;;;;;28.35;48.04;100491.75;5059612;28;20037;-70
2022/06/02 12:37:28;;;;;;;2.33;1.67;;;;;;;28.39;46.93;100495.69;5047100;28;20029;-69
2022/06/02 12:40:18;;;;;;;2.95;1.95;;;;;;;28.31;46.71;100472.09;5049563;28;20025;-69
2022/06/02 12:43:19;;;;;;;2.08;1.58;;;;;;;28.39;46.56;100495.69;5054737;28;20431;-69
2022/06/02 12:46:06;;;;;;;3.42;1.77;;;;;;;28.36;46.47;100497.03;5047315;28;20017;-69
2022/06/02 12:49:09;;;;;;;2.63;1.70;;;;;;;28.40;46.36;100500.13;5046181;28;20044;-69
2022/06/02 12:51:56;;;;;;;4.53;1.80;;;;;;;28.37;45.66;100492.34;5058030;28;20036;-69
2022/06/02 12:54:59;;;;;;;4.07;1.63;;;;;;;28.37;46.13;100493.19;5057511;28;20096;-70
2022/06/02 12:57:59;;;;;;;4.13;1.60;;;;;;;28.46;45.08;100494.50;5067506;28;20567;-70
2022/06/02 13:00:52;;;;;;;1.98;1.73;;;;;;;28.40;45.60;100498.22;5051902;28;20483;-69
2022/06/02 13:03:45;;;;;;;4.07;1.90;;;;;;;28.38;45.83;100500.38;5047481;28;20502;-69
2022/06/02 13:06:48;;;;;;;2.30;1.58;;;;;;;28.35;46.29;100489.84;5047794;28;20580;-69